createdAt,value
2019-05-07T00:01:19.734Z,47.60
2019-05-07T00:03:49.368Z,47.60
2019-05-07T00:06:19.082Z,47.60
2019-05-07T00:08:49.015Z,47.60
2019-05-07T00:11:18.658Z,47.60
2019-05-07T00:13:52.170Z,47.60
2019-05-07T00:16:22.434Z,47.60
2019-05-07T00:18:52.611Z,47.60
2019-05-07T00:21:23.563Z,47.60
2019-05-07T00:23:53.306Z,47.50
2019-05-07T00:26:22.962Z,47.50
2019-05-07T00:28:52.838Z,47.50
2019-05-07T00:31:23.294Z,47.60
2019-05-07T00:33:53.186Z,47.50
2019-05-07T00:36:37.285Z,47.60
2019-05-07T00:39:25.007Z,47.60
2019-05-07T00:42:03.009Z,47.60
2019-05-07T00:44:33.414Z,47.50
2019-05-07T00:47:03.098Z,47.50
2019-05-07T00:49:33.153Z,47.50
2019-05-07T00:52:03.043Z,47.50
2019-05-07T00:54:32.687Z,47.00
2019-05-07T00:57:03.104Z,47.60
2019-05-07T00:59:32.851Z,47.50
2019-05-07T01:02:04.079Z,47.50
2019-05-07T01:04:33.718Z,47.50
2019-05-07T01:07:03.386Z,47.50
2019-05-07T01:09:33.018Z,47.50
2019-05-07T01:12:03.229Z,47.50
2019-05-07T01:14:32.979Z,47.50
2019-05-07T01:17:02.702Z,47.50
2019-05-07T01:19:33.395Z,47.50
2019-05-07T01:22:03.276Z,47.50
2019-05-07T01:24:33.202Z,47.50
2019-05-07T01:27:02.879Z,47.50
2019-05-07T01:29:32.939Z,47.50
2019-05-07T01:32:12.571Z,47.50
2019-05-07T01:34:52.474Z,47.50
2019-05-07T01:37:23.132Z,47.50
2019-05-07T01:39:53.113Z,47.50
2019-05-07T01:42:22.938Z,47.50
2019-05-07T01:44:52.937Z,47.50
2019-05-07T01:47:23.716Z,47.50
2019-05-07T01:49:55.235Z,47.50
2019-05-07T01:52:25.900Z,47.50
2019-05-07T01:54:55.535Z,47.50
2019-05-07T01:57:25.190Z,47.50
2019-05-07T01:59:54.822Z,47.50
2019-05-07T02:02:32.053Z,47.50
2019-05-07T02:05:13.015Z,47.60
2019-05-07T02:07:48.204Z,47.60
2019-05-07T02:10:27.938Z,47.50
2019-05-07T02:12:57.597Z,47.50
2019-05-07T02:15:27.307Z,47.50
2019-05-07T02:17:57.029Z,47.50
2019-05-07T02:20:26.668Z,47.50
2019-05-07T02:22:56.314Z,47.50
2019-05-07T02:25:26.130Z,47.40
2019-05-07T02:27:55.782Z,47.40
2019-05-07T02:30:25.419Z,47.40
2019-05-07T02:32:56.286Z,47.40
2019-05-07T02:35:25.916Z,47.40
2019-05-07T02:38:14.727Z,47.40
2019-05-07T02:41:09.577Z,47.40
2019-05-07T02:43:39.235Z,47.40
2019-05-07T02:46:36.277Z,47.50
2019-05-07T02:49:24.541Z,47.40
2019-05-07T02:52:13.232Z,47.40
2019-05-07T02:55:03.856Z,47.40
2019-05-07T02:57:34.456Z,47.50
2019-05-07T03:00:05.637Z,47.50
2019-05-07T03:02:35.626Z,47.50
2019-05-07T03:05:05.689Z,47.50
2019-05-07T03:07:35.519Z,47.50
2019-05-07T03:10:05.529Z,47.50
2019-05-07T03:12:35.248Z,47.50
2019-05-07T03:15:05.550Z,47.40
2019-05-07T03:17:35.274Z,47.50
2019-05-07T03:20:08.164Z,47.50
2019-05-07T03:22:37.812Z,47.50
2019-05-07T03:25:14.607Z,47.50
2019-05-07T03:27:44.243Z,47.50
2019-05-07T03:30:35.993Z,47.50
2019-05-07T03:33:26.258Z,47.40
2019-05-07T03:35:56.868Z,47.50
2019-05-07T03:38:27.040Z,47.40
2019-05-07T03:40:56.687Z,47.40
2019-05-07T03:43:26.999Z,47.40
2019-05-07T03:46:09.093Z,47.30
2019-05-07T03:48:39.551Z,47.30
2019-05-07T03:51:09.255Z,47.30
2019-05-07T03:53:38.930Z,47.30
2019-05-07T03:56:08.626Z,47.20
2019-05-07T03:58:38.271Z,47.20
2019-05-07T04:01:07.902Z,47.20
2019-05-07T04:03:37.562Z,47.20
2019-05-07T04:06:07.281Z,47.20
2019-05-07T04:08:36.936Z,47.20
2019-05-07T04:11:06.571Z,47.30
2019-05-07T04:13:36.227Z,47.50
2019-05-07T04:16:05.963Z,47.60
2019-05-07T04:18:35.610Z,47.60
2019-05-07T04:21:05.260Z,47.60
2019-05-07T04:23:34.917Z,47.60
2019-05-07T04:26:26.191Z,47.60
2019-05-07T04:29:05.801Z,47.70
2019-05-07T04:31:43.482Z,47.70
2019-05-07T04:34:23.761Z,47.90
2019-05-07T04:36:53.466Z,48.00
2019-05-07T04:39:23.542Z,47.90
2019-05-07T04:41:53.360Z,47.80
2019-05-07T04:44:23.671Z,47.50
2019-05-07T04:46:53.738Z,47.10
2019-05-07T04:49:23.967Z,47.00
2019-05-07T04:52:12.483Z,47.10
2019-05-07T04:54:43.696Z,47.20
2019-05-07T04:57:25.776Z,47.20
2019-05-07T04:59:56.918Z,47.30
2019-05-07T05:02:48.047Z,47.40
2019-05-07T05:05:18.446Z,47.60
2019-05-07T05:07:48.494Z,47.80
2019-05-07T05:10:18.223Z,47.80
2019-05-07T05:15:38.786Z,48.00
2019-05-07T05:21:19.730Z,48.10
2019-05-07T05:23:57.699Z,48.10
2019-05-07T05:26:27.342Z,48.10
2019-05-07T05:28:57.074Z,48.10
2019-05-07T05:31:26.886Z,48.20
2019-05-07T05:33:56.538Z,48.20
2019-05-07T05:44:55.330Z,48.10
2019-05-07T05:50:15.707Z,48.20
2019-05-07T05:55:38.168Z,48.20
2019-05-07T06:15:52.216Z,47.50
2019-05-07T06:30:09.140Z,46.60
2019-05-07T06:35:32.426Z,46.60
2019-05-07T06:41:03.083Z,46.80
2019-05-07T06:46:24.683Z,47.00
2019-05-07T06:48:54.368Z,46.90
2019-05-07T06:51:24.023Z,46.90
2019-05-07T06:53:53.654Z,47.00
2019-05-07T07:05:18.863Z,47.00
2019-05-07T07:16:34.711Z,45.90
2019-05-07T07:19:04.651Z,45.10
2019-05-07T07:21:34.380Z,45.10
2019-05-07T07:24:04.191Z,44.20
2019-05-07T07:26:36.292Z,43.70
2019-05-07T07:29:08.130Z,43.90
2019-05-07T07:31:42.594Z,44.20
2019-05-07T07:34:13.003Z,44.70
2019-05-07T07:39:33.490Z,44.90
2019-05-07T07:45:15.079Z,44.90
2019-05-07T07:47:46.243Z,45.00
2019-05-07T07:50:16.193Z,45.00
2019-05-07T07:52:46.010Z,44.90
2019-05-07T07:55:17.883Z,44.80
2019-05-07T07:57:57.803Z,44.50
2019-05-07T08:00:42.875Z,44.60
2019-05-07T08:03:13.436Z,44.80
2019-05-07T08:05:43.159Z,45.60
2019-05-07T08:11:02.934Z,44.90
2019-05-07T08:25:23.786Z,41.20
2019-05-07T08:30:47.171Z,39.60
2019-05-07T08:50:02.880Z,42.70
2019-05-07T08:55:23.140Z,43.20
2019-05-07T08:57:52.862Z,43.70
2019-05-07T09:00:23.739Z,44.10
2019-05-07T09:02:54.176Z,44.20
2019-05-07T09:05:23.874Z,44.40
2019-05-07T09:10:43.938Z,44.40
2019-05-07T09:13:13.586Z,44.40
2019-05-07T09:15:43.223Z,44.70
2019-05-07T09:18:12.947Z,44.90
2019-05-07T09:20:42.660Z,44.90
2019-05-07T09:23:12.450Z,45.20
2019-05-07T09:25:48.615Z,45.40
2019-05-07T09:31:17.083Z,45.70
2019-05-07T09:33:48.719Z,45.50
2019-05-07T09:36:23.739Z,45.40
2019-05-07T09:38:59.188Z,44.50
2019-05-07T09:41:27.815Z,43.40
2019-05-07T09:43:58.175Z,42.60
2019-05-07T09:46:27.961Z,42.20
2019-05-07T09:48:58.734Z,41.80
2019-05-07T09:51:28.434Z,41.30
2019-05-07T09:53:58.075Z,41.30
2019-05-07T10:05:02.073Z,41.30
2019-05-07T10:10:23.182Z,42.20
2019-05-07T10:15:43.322Z,43.00
2019-05-07T10:29:44.563Z,43.30
2019-05-07T10:35:12.810Z,43.60
2019-05-07T10:40:35.770Z,43.60
2019-05-07T10:59:59.238Z,43.60
2019-05-07T11:05:26.095Z,43.70
2019-05-07T11:10:45.158Z,43.80
2019-05-07T11:29:56.162Z,44.10
2019-05-07T11:35:16.437Z,44.10
2019-05-07T11:40:42.936Z,44.10
2019-05-07T11:59:59.311Z,43.80
2019-05-07T12:05:05.679Z,43.60
2019-05-07T12:10:25.146Z,43.50
2019-05-07T12:15:46.616Z,43.40
2019-05-07T12:21:20.727Z,43.40
2019-05-07T12:35:14.891Z,43.70
2019-05-07T12:40:27.623Z,44.00
2019-05-07T12:45:47.498Z,44.00
2019-05-07T12:51:06.556Z,44.10
2019-05-07T12:56:26.612Z,44.40
2019-05-07T12:58:56.247Z,44.40
2019-05-07T13:01:38.730Z,44.40
2019-05-07T13:04:11.758Z,44.60
2019-05-07T13:06:52.818Z,44.70
2019-05-07T13:09:22.553Z,44.80
2019-05-07T13:20:22.627Z,45.10
2019-05-07T13:25:42.960Z,45.30
2019-05-07T13:31:03.508Z,45.50
2019-05-07T13:45:36.803Z,45.70
2019-05-07T13:50:56.880Z,45.70
2019-05-07T13:53:26.687Z,45.60
2019-05-07T13:55:57.040Z,45.70
2019-05-07T13:58:26.771Z,45.70
2019-05-07T14:16:02.859Z,46.10
2019-05-07T14:21:22.467Z,46.20
2019-05-07T14:23:52.189Z,46.20
2019-05-07T14:26:23.694Z,46.30
2019-05-07T14:28:53.206Z,46.40
2019-05-07T14:37:16.152Z,46.50
2019-05-07T14:39:45.778Z,46.50
2019-05-07T14:42:22.066Z,46.60
2019-05-07T14:44:52.747Z,46.70
2019-05-07T14:47:22.667Z,46.70
2019-05-07T14:49:52.963Z,46.80
2019-05-07T14:55:13.060Z,46.80
2019-05-07T15:00:26.072Z,46.90
2019-05-07T15:02:55.862Z,47.00
2019-05-07T15:05:25.946Z,47.00
2019-05-07T15:08:07.519Z,47.10
2019-05-07T15:10:27.279Z,47.10
2019-05-07T15:12:58.046Z,47.20
2019-05-07T15:15:27.814Z,47.30
2019-05-07T15:18:16.339Z,47.30
2019-05-07T15:20:46.130Z,47.30
2019-05-07T15:23:22.536Z,47.40
2019-05-07T15:25:52.327Z,47.40
2019-05-07T15:31:14.890Z,47.50
2019-05-07T15:33:44.602Z,47.60
2019-05-07T15:36:14.372Z,47.60
2019-05-07T15:38:44.093Z,47.70
2019-05-07T15:43:57.025Z,47.80
2019-05-07T15:52:58.835Z,48.00
2019-05-07T15:55:28.442Z,48.10
2019-05-07T15:57:58.738Z,48.10
2019-05-07T16:00:29.737Z,48.10
2019-05-07T16:05:50.227Z,48.30
2019-05-07T16:11:17.074Z,48.40
2019-05-07T16:14:04.571Z,48.40
2019-05-07T16:16:35.487Z,48.50
2019-05-07T16:19:08.934Z,48.40
2019-05-07T16:21:38.571Z,48.90
2019-05-07T16:24:08.214Z,48.40
2019-05-07T16:26:37.942Z,48.70
2019-05-07T16:29:07.642Z,49.00
2019-05-07T16:31:37.359Z,49.10
2019-05-07T16:34:07.008Z,49.30
2019-05-07T16:42:16.169Z,49.20
2019-05-07T16:44:45.874Z,49.20
2019-05-07T16:47:15.520Z,49.30
2019-05-07T16:49:45.197Z,49.30
2019-05-07T16:54:59.559Z,49.30
2019-05-07T16:58:01.848Z,49.20
2019-05-07T17:00:36.627Z,49.20
2019-05-07T17:03:08.914Z,48.90
2019-05-07T17:05:38.561Z,48.80
2019-05-07T17:08:31.873Z,48.90
2019-05-07T17:11:03.058Z,49.00
2019-05-07T17:13:33.015Z,49.00
2019-05-07T17:16:03.316Z,49.00
2019-05-07T17:21:23.170Z,49.10
2019-05-07T17:23:52.887Z,49.10
2019-05-07T17:26:23.193Z,48.90
2019-05-07T17:28:52.936Z,48.60
2019-05-07T17:31:22.966Z,48.20
2019-05-07T17:33:52.691Z,47.80
2019-05-07T17:36:22.585Z,47.50
2019-05-07T17:38:52.262Z,47.40
2019-05-07T17:41:26.783Z,46.90
2019-05-07T17:43:54.295Z,46.60
2019-05-07T17:46:24.006Z,46.50
2019-05-07T17:48:53.659Z,46.40
2019-05-07T17:51:42.549Z,46.30
2019-05-07T17:54:13.349Z,46.10
2019-05-07T18:02:46.527Z,45.80
2019-05-07T18:05:16.170Z,45.80
2019-05-07T18:07:45.810Z,45.70
2019-05-07T18:10:15.608Z,45.60
2019-05-07T18:12:45.239Z,45.50
2019-05-07T18:15:14.983Z,45.50
2019-05-07T18:20:37.259Z,45.40
2019-05-07T18:23:09.958Z,45.40
2019-05-07T18:25:38.354Z,45.40
2019-05-07T18:28:08.084Z,45.30
2019-05-07T18:30:37.747Z,45.30
2019-05-07T18:33:22.122Z,45.30
2019-05-07T18:35:52.521Z,45.30
2019-05-07T18:38:22.503Z,45.30
2019-05-07T18:40:52.850Z,45.30
2019-05-07T18:43:22.755Z,45.30
2019-05-07T18:45:52.436Z,45.30
2019-05-07T18:51:05.031Z,45.60
2019-05-07T18:53:34.732Z,45.70
2019-05-07T18:56:04.472Z,45.90
2019-05-07T18:58:34.102Z,45.90
2019-05-07T19:01:08.357Z,46.00
2019-05-07T19:03:38.151Z,46.10
2019-05-07T19:06:07.954Z,46.10
2019-05-07T19:08:37.684Z,46.20
2019-05-07T19:11:07.479Z,46.20
2019-05-07T19:13:37.219Z,46.30
2019-05-07T19:16:06.863Z,46.40
2019-05-07T19:21:26.242Z,46.50
2019-05-07T19:23:55.879Z,46.60
2019-05-07T19:26:25.615Z,46.60
2019-05-07T19:28:55.251Z,46.60
2019-05-07T19:31:24.970Z,46.70
2019-05-07T19:33:54.716Z,46.70
2019-05-07T19:36:24.382Z,46.80
2019-05-07T19:38:54.022Z,46.90
2019-05-07T19:41:23.672Z,46.90
2019-05-07T19:43:53.315Z,46.90
2019-05-07T19:46:23.048Z,47.00
2019-05-07T19:48:52.682Z,47.00
2019-05-07T20:00:16.897Z,47.00
2019-05-07T20:02:48.592Z,47.10
2019-05-07T20:05:18.311Z,47.10
2019-05-07T20:07:47.964Z,47.40
2019-05-07T20:10:24.392Z,47.20
2019-05-07T20:12:54.026Z,47.30
2019-05-07T20:15:23.676Z,47.30
2019-05-07T20:17:53.346Z,47.30
2019-05-07T20:20:23.004Z,47.30
2019-05-07T20:25:35.276Z,47.40
2019-05-07T20:28:05.051Z,47.50
2019-05-07T20:30:34.700Z,47.40
2019-05-07T20:33:04.479Z,47.30
2019-05-07T20:35:37.330Z,47.30
2019-05-07T20:38:05.550Z,47.20
2019-05-07T20:40:35.194Z,47.10
2019-05-07T20:43:04.979Z,47.20
2019-05-07T20:45:34.623Z,47.10
2019-05-07T20:48:04.270Z,47.10
2019-05-07T20:50:33.994Z,47.10
2019-05-07T20:53:03.743Z,47.10
2019-05-07T20:55:44.702Z,47.30
2019-05-07T20:58:14.409Z,47.50
2019-05-07T21:00:44.263Z,47.60
2019-05-07T21:03:19.902Z,47.70
2019-05-07T21:05:52.950Z,47.80
2019-05-07T21:08:23.209Z,47.80
2019-05-07T21:10:53.717Z,47.70
2019-05-07T21:13:30.385Z,47.70
2019-05-07T21:15:54.890Z,47.70
2019-05-07T21:18:24.616Z,47.70
2019-05-07T21:20:54.329Z,47.80
2019-05-07T21:23:23.960Z,47.80
2019-05-07T21:25:53.611Z,47.80
2019-05-07T21:28:23.255Z,47.80
2019-05-07T21:30:52.982Z,47.80
2019-05-07T21:33:23.095Z,47.80
2019-05-07T21:35:52.822Z,47.80
2019-05-07T21:38:22.639Z,47.90
2019-05-07T21:40:52.283Z,47.90
2019-05-07T21:43:22.429Z,47.90
2019-05-07T21:45:52.984Z,47.90
2019-05-07T21:48:23.884Z,47.90
2019-05-07T21:50:54.216Z,47.80
2019-05-07T21:53:35.323Z,47.90
2019-05-07T21:56:30.503Z,47.90
2019-05-07T21:59:03.696Z,47.80
2019-05-07T22:01:47.900Z,47.90
2019-05-07T22:04:17.654Z,47.90
2019-05-07T22:06:48.034Z,47.90
2019-05-07T22:09:18.351Z,47.80
2019-05-07T22:11:48.067Z,47.90
2019-05-07T22:14:17.702Z,47.90
2019-05-07T22:16:47.354Z,47.90
2019-05-07T22:19:17.004Z,47.90
2019-05-07T22:21:46.647Z,47.90
2019-05-07T22:24:16.290Z,47.90
2019-05-07T22:26:45.912Z,47.90
2019-05-07T22:29:15.550Z,47.90
2019-05-07T22:32:04.375Z,47.90
2019-05-07T22:34:52.096Z,47.90
2019-05-07T22:37:23.388Z,47.90
2019-05-07T22:40:02.605Z,47.90
2019-05-07T22:42:34.303Z,47.90
2019-05-07T22:45:04.294Z,47.90
2019-05-07T22:47:35.567Z,47.90
2019-05-07T22:50:07.072Z,47.90
2019-05-07T22:52:36.723Z,47.90
2019-05-07T22:55:06.426Z,47.90
2019-05-07T22:57:42.231Z,47.90
2019-05-07T23:00:18.319Z,47.90
2019-05-07T23:02:47.963Z,47.80
2019-05-07T23:05:17.595Z,47.90
2019-05-07T23:07:47.239Z,47.80
2019-05-07T23:10:16.942Z,47.90
2019-05-07T23:12:46.589Z,47.80
2019-05-07T23:15:16.535Z,47.70
2019-05-07T23:17:46.183Z,47.70
2019-05-07T23:20:15.890Z,47.70
2019-05-07T23:22:45.531Z,47.80
2019-05-07T23:25:15.303Z,47.80
2019-05-07T23:27:45.143Z,47.80
2019-05-07T23:30:14.919Z,47.80
2019-05-07T23:32:44.546Z,47.90
2019-05-07T23:35:14.335Z,47.90
2019-05-07T23:37:44.259Z,47.90
2019-05-07T23:40:27.114Z,47.80
2019-05-07T23:42:58.658Z,47.80
2019-05-07T23:45:28.296Z,47.80
2019-05-07T23:47:58.011Z,47.80
2019-05-07T23:50:27.651Z,47.80
2019-05-07T23:52:57.310Z,47.80
2019-05-07T23:55:26.934Z,47.80
2019-05-07T23:57:56.654Z,47.80
